createdAt,value
2019-02-07T00:00:57.321Z,6.39
2019-02-07T00:01:57.352Z,6.36
2019-02-07T00:02:57.154Z,6.39
2019-02-07T00:03:57.066Z,6.42
2019-02-07T00:04:57.039Z,6.33
2019-02-07T00:05:56.891Z,6.35
2019-02-07T00:06:56.821Z,6.36
2019-02-07T00:07:56.746Z,6.28
2019-02-07T00:08:56.632Z,6.32
2019-02-07T00:09:56.545Z,6.27
2019-02-07T00:10:56.559Z,6.35
2019-02-07T00:11:56.389Z,6.28
2019-02-07T00:12:56.287Z,6.36
2019-02-07T00:13:56.273Z,6.33
2019-02-07T00:14:56.115Z,6.33
2019-02-07T00:15:56.028Z,6.21
2019-02-07T00:16:58.066Z,6.30
2019-02-07T00:17:55.857Z,6.21
2019-02-07T00:18:55.778Z,6.27
2019-02-07T00:19:55.683Z,6.32
2019-02-07T00:20:55.710Z,6.20
2019-02-07T00:21:55.524Z,6.20
2019-02-07T00:22:55.516Z,6.20
2019-02-07T00:23:55.340Z,6.21
2019-02-07T00:24:55.325Z,6.27
2019-02-07T00:25:55.168Z,6.33
2019-02-07T00:26:55.170Z,6.28
2019-02-07T00:27:54.991Z,6.27
2019-02-07T00:29:01.701Z,6.28
2019-02-07T00:29:54.823Z,6.27
2019-02-07T00:30:54.736Z,6.33
2019-02-07T00:31:54.689Z,6.30
2019-02-07T00:32:54.569Z,6.25
2019-02-07T00:33:54.478Z,6.25
2019-02-07T00:34:56.418Z,6.21
2019-02-07T00:35:54.304Z,6.21
2019-02-07T00:36:54.233Z,6.21
2019-02-07T00:37:54.185Z,6.28
2019-02-07T00:38:54.044Z,6.24
2019-02-07T00:39:53.959Z,6.24
2019-02-07T00:40:53.899Z,6.24
2019-02-07T00:41:53.802Z,6.24
2019-02-07T00:42:53.810Z,6.25
2019-02-07T00:43:53.613Z,6.20
2019-02-07T00:44:53.619Z,6.19
2019-02-07T00:45:53.446Z,6.21
2019-02-07T00:46:55.406Z,6.14
2019-02-07T00:47:53.272Z,6.16
2019-02-07T00:48:53.241Z,6.10
2019-02-07T00:49:53.100Z,6.06
2019-02-07T00:50:53.046Z,6.16
2019-02-07T00:51:52.924Z,6.17
2019-02-07T00:52:52.885Z,6.01
2019-02-07T00:53:52.754Z,6.17
2019-02-07T00:54:52.767Z,6.16
2019-02-07T00:55:52.581Z,6.03
2019-02-07T00:56:52.490Z,6.02
2019-02-07T00:57:53.437Z,6.01
2019-02-07T00:58:52.319Z,5.99
2019-02-07T00:59:52.231Z,5.93
2019-02-07T01:00:52.194Z,5.93
2019-02-07T01:01:52.059Z,5.85
2019-02-07T01:02:51.986Z,5.96
2019-02-07T01:03:51.909Z,5.87
2019-02-07T01:04:51.801Z,5.85
2019-02-07T01:05:51.715Z,5.87
2019-02-07T01:06:51.724Z,5.77
2019-02-07T01:07:51.554Z,5.77
2019-02-07T01:08:51.532Z,5.73
2019-02-07T01:09:51.368Z,5.84
2019-02-07T01:10:51.283Z,5.81
2019-02-07T01:11:51.246Z,5.80
2019-02-07T01:12:51.121Z,5.83
2019-02-07T01:13:51.021Z,5.67
2019-02-07T01:15:02.286Z,5.65
2019-02-07T01:15:50.849Z,5.65
2019-02-07T01:16:50.761Z,5.75
2019-02-07T01:17:50.694Z,5.67
2019-02-07T01:18:50.681Z,5.65
2019-02-07T01:19:50.503Z,5.62
2019-02-07T01:20:50.417Z,5.66
2019-02-07T01:21:50.334Z,5.60
2019-02-07T01:22:50.331Z,5.55
2019-02-07T01:23:50.156Z,5.58
2019-02-07T01:24:50.106Z,5.67
2019-02-07T01:25:49.983Z,5.59
2019-02-07T01:26:49.897Z,5.59
2019-02-07T01:27:49.853Z,5.69
2019-02-07T01:28:49.723Z,5.70
2019-02-07T01:29:49.641Z,5.51
2019-02-07T01:30:49.636Z,5.55
2019-02-07T01:31:49.464Z,5.55
2019-02-07T01:32:49.391Z,5.58
2019-02-07T01:33:49.349Z,5.51
2019-02-07T01:34:49.203Z,5.55
2019-02-07T01:35:49.117Z,5.56
2019-02-07T01:36:49.069Z,5.56
2019-02-07T01:37:48.998Z,5.48
2019-02-07T01:38:48.885Z,5.49
2019-02-07T01:39:48.770Z,5.47
2019-02-07T01:40:48.690Z,5.41
2019-02-07T01:41:48.602Z,5.44
2019-02-07T01:42:48.629Z,5.42
2019-02-07T01:43:48.425Z,5.45
2019-02-07T01:44:48.406Z,5.48
2019-02-07T01:45:48.254Z,5.37
2019-02-07T01:46:48.215Z,5.47
2019-02-07T01:47:48.100Z,5.44
2019-02-07T01:48:48.052Z,5.44
2019-02-07T01:49:47.905Z,5.47
2019-02-07T01:50:47.934Z,5.41
2019-02-07T01:51:47.731Z,5.38
2019-02-07T01:52:47.659Z,5.51
2019-02-07T01:53:47.645Z,5.44
2019-02-07T01:54:47.475Z,5.38
2019-02-07T01:55:47.385Z,5.40
2019-02-07T01:56:47.360Z,5.40
2019-02-07T01:57:47.226Z,5.30
2019-02-07T01:58:47.127Z,5.42
2019-02-07T01:59:47.074Z,5.38
2019-02-07T02:00:46.951Z,5.38
2019-02-07T02:01:46.864Z,5.44
2019-02-07T02:02:48.016Z,5.37
2019-02-07T02:03:46.690Z,5.37
2019-02-07T02:04:46.605Z,5.38
2019-02-07T02:05:46.600Z,5.40
2019-02-07T02:06:46.436Z,5.32
2019-02-07T02:07:46.443Z,5.32
2019-02-07T02:08:46.262Z,5.37
2019-02-07T02:09:46.221Z,5.30
2019-02-07T02:10:46.085Z,5.38
2019-02-07T02:11:46.029Z,5.32
2019-02-07T02:12:45.929Z,5.33
2019-02-07T02:13:45.838Z,5.23
2019-02-07T02:14:45.738Z,5.24
2019-02-07T02:15:45.657Z,5.20
2019-02-07T02:16:45.564Z,5.23
2019-02-07T02:17:45.513Z,5.26
2019-02-07T02:18:45.464Z,5.26
2019-02-07T02:19:45.303Z,5.27
2019-02-07T02:20:45.221Z,5.23
2019-02-07T02:21:45.177Z,5.22
2019-02-07T02:22:45.044Z,5.20
2019-02-07T02:23:44.970Z,5.29
2019-02-07T02:24:45.321Z,5.19
2019-02-07T02:25:44.786Z,5.26
2019-02-07T02:26:44.695Z,5.19
2019-02-07T02:27:44.611Z,5.11
2019-02-07T02:28:44.642Z,5.12
2019-02-07T02:29:44.439Z,5.12
2019-02-07T02:30:44.351Z,5.09
2019-02-07T02:31:44.326Z,5.14
2019-02-07T02:32:44.175Z,5.05
2019-02-07T02:33:44.166Z,5.17
2019-02-07T02:34:44.003Z,5.04
2019-02-07T02:35:50.700Z,5.08
2019-02-07T02:36:43.829Z,5.06
2019-02-07T02:37:43.854Z,5.01
2019-02-07T02:38:43.671Z,5.04
2019-02-07T02:39:44.586Z,5.06
2019-02-07T02:40:43.481Z,5.01
2019-02-07T02:41:45.419Z,5.09
2019-02-07T02:42:43.307Z,5.04
2019-02-07T02:43:43.314Z,5.05
2019-02-07T02:44:43.134Z,5.01
2019-02-07T02:45:43.091Z,5.04
2019-02-07T02:46:42.963Z,5.01
2019-02-07T02:47:42.871Z,5.08
2019-02-07T02:48:42.843Z,5.08
2019-02-07T02:49:42.697Z,5.05
2019-02-07T02:50:42.611Z,5.01
2019-02-07T02:51:42.620Z,5.01
2019-02-07T02:52:42.439Z,4.97
2019-02-07T02:53:42.459Z,5.01
2019-02-07T02:54:42.267Z,4.96
2019-02-07T02:55:42.242Z,4.94
2019-02-07T02:56:42.094Z,4.99
2019-02-07T02:57:42.002Z,4.96
2019-02-07T02:58:45.160Z,5.01
2019-02-07T02:59:41.829Z,4.99
2019-02-07T03:00:41.754Z,4.97
2019-02-07T03:01:41.768Z,4.97
2019-02-07T03:02:41.569Z,4.96
2019-02-07T03:03:41.609Z,4.97
2019-02-07T03:04:41.397Z,4.97
2019-02-07T03:05:41.384Z,4.97
2019-02-07T03:06:41.221Z,5.02
2019-02-07T03:07:41.136Z,4.99
2019-02-07T03:08:41.131Z,5.02
2019-02-07T03:09:40.962Z,4.97
2019-02-07T03:10:40.873Z,5.05
2019-02-07T03:11:40.812Z,4.96
2019-02-07T03:12:40.717Z,5.02
2019-02-07T03:13:40.673Z,4.97
2019-02-07T03:14:40.528Z,4.94
2019-02-07T03:15:49.165Z,4.99
2019-02-07T03:16:40.387Z,5.02
2019-02-07T03:17:40.341Z,4.96
2019-02-07T03:18:40.195Z,5.01
2019-02-07T03:19:40.150Z,4.93
2019-02-07T03:20:40.009Z,5.02
2019-02-07T03:21:46.729Z,4.99
2019-02-07T03:22:39.835Z,5.01
2019-02-07T03:23:39.800Z,5.02
2019-02-07T03:24:39.656Z,5.01
2019-02-07T03:25:39.680Z,4.91
2019-02-07T03:26:39.481Z,5.02
2019-02-07T03:27:40.412Z,4.97
2019-02-07T03:28:39.321Z,4.96
2019-02-07T03:29:39.300Z,4.91
2019-02-07T03:30:39.141Z,4.94
2019-02-07T03:31:39.110Z,5.04
2019-02-07T03:32:38.962Z,5.02
2019-02-07T03:33:38.956Z,5.02
2019-02-07T03:34:38.786Z,5.06
2019-02-07T03:35:38.773Z,4.99
2019-02-07T03:36:38.614Z,5.09
2019-02-07T03:37:38.639Z,5.01
2019-02-07T03:38:38.455Z,5.06
2019-02-07T03:39:38.449Z,5.01
2019-02-07T03:40:38.264Z,5.06
2019-02-07T03:41:38.256Z,5.02
2019-02-07T03:42:38.092Z,5.04
2019-02-07T03:43:38.045Z,5.04
2019-02-07T03:44:44.728Z,5.04
2019-02-07T03:45:37.829Z,5.01
2019-02-07T03:46:37.745Z,5.02
2019-02-07T03:47:37.688Z,5.06
2019-02-07T03:48:37.571Z,5.11
2019-02-07T03:49:37.524Z,5.01
2019-02-07T03:50:37.396Z,5.01
2019-02-07T03:51:37.315Z,5.04
2019-02-07T03:52:37.225Z,5.06
2019-02-07T03:53:37.138Z,5.05
2019-02-07T03:54:37.151Z,5.11
2019-02-07T03:55:36.962Z,5.15
2019-02-07T03:56:36.880Z,5.09
2019-02-07T03:57:36.832Z,5.15
2019-02-07T03:58:36.703Z,5.19
2019-02-07T03:59:36.629Z,5.15
2019-02-07T04:00:36.546Z,5.20
2019-02-07T04:01:36.443Z,5.14
2019-02-07T04:02:36.357Z,5.20
2019-02-07T04:03:36.367Z,5.33
2019-02-07T04:04:36.196Z,5.22
2019-02-07T04:05:36.173Z,5.15
2019-02-07T04:06:36.010Z,5.17
2019-02-07T04:07:36.929Z,5.19
2019-02-07T04:08:35.834Z,5.33
2019-02-07T04:09:35.761Z,5.26
2019-02-07T04:10:35.697Z,5.22
2019-02-07T04:11:35.575Z,5.23
2019-02-07T04:12:35.486Z,5.22
2019-02-07T04:13:36.432Z,5.22
2019-02-07T04:14:35.326Z,5.23
2019-02-07T04:15:35.227Z,5.20
2019-02-07T04:16:35.226Z,5.22
2019-02-07T04:17:35.055Z,5.24
2019-02-07T04:18:34.967Z,5.23
2019-02-07T04:19:34.966Z,5.29
2019-02-07T04:20:34.796Z,5.17
2019-02-07T04:21:34.709Z,5.20
2019-02-07T04:22:34.652Z,5.32
2019-02-07T04:23:34.530Z,5.24
2019-02-07T04:24:34.461Z,5.26
2019-02-07T04:25:35.386Z,5.26
2019-02-07T04:26:34.272Z,5.24
2019-02-07T04:27:34.183Z,5.32
2019-02-07T04:28:34.101Z,5.20
2019-02-07T04:29:34.113Z,5.33
2019-02-07T04:30:33.928Z,5.33
2019-02-07T04:31:33.846Z,5.37
2019-02-07T04:32:33.801Z,5.32
2019-02-07T04:33:33.667Z,5.32
2019-02-07T04:34:33.594Z,5.44
2019-02-07T04:35:33.511Z,5.42
2019-02-07T04:36:33.411Z,5.37
2019-02-07T04:37:33.325Z,5.41
2019-02-07T04:38:33.330Z,5.38
2019-02-07T04:39:33.167Z,5.49
2019-02-07T04:40:33.063Z,5.48
2019-02-07T04:41:33.041Z,5.55
2019-02-07T04:42:32.888Z,5.48
2019-02-07T04:43:32.801Z,5.48
2019-02-07T04:44:32.787Z,5.60
2019-02-07T04:45:32.628Z,5.58
2019-02-07T04:46:32.542Z,5.45
2019-02-07T04:47:39.230Z,5.58
2019-02-07T04:48:32.370Z,5.60
2019-02-07T04:49:32.297Z,5.60
2019-02-07T04:50:32.294Z,5.52
2019-02-07T04:51:32.108Z,5.60
2019-02-07T04:52:32.031Z,5.51
2019-02-07T04:53:31.938Z,5.63
2019-02-07T04:54:31.936Z,5.55
2019-02-07T04:55:31.765Z,5.63
2019-02-07T04:56:31.710Z,5.63
2019-02-07T04:57:31.592Z,5.67
2019-02-07T04:58:31.519Z,5.67
2019-02-07T04:59:31.432Z,5.70
2019-02-07T05:00:31.330Z,5.70
2019-02-07T05:01:31.386Z,5.65
2019-02-07T05:02:31.155Z,5.66
2019-02-07T05:03:31.113Z,5.69
2019-02-07T05:04:31.096Z,5.65
2019-02-07T05:05:30.898Z,5.65
2019-02-07T05:06:30.812Z,5.70
2019-02-07T05:07:30.763Z,5.75
2019-02-07T05:08:30.639Z,5.75
2019-02-07T05:09:30.713Z,5.83
2019-02-07T05:10:30.579Z,5.81
2019-02-07T05:11:30.378Z,5.84
2019-02-07T05:12:30.292Z,5.75
2019-02-07T05:13:30.291Z,5.92
2019-02-07T05:14:30.124Z,5.81
2019-02-07T05:15:30.134Z,5.84
2019-02-07T05:16:39.176Z,5.75
2019-02-07T05:17:29.911Z,5.93
2019-02-07T05:18:29.773Z,5.85
2019-02-07T05:19:29.686Z,5.83
2019-02-07T05:20:29.656Z,5.87
2019-02-07T05:21:29.545Z,5.92
2019-02-07T05:22:29.428Z,5.88
2019-02-07T05:23:29.443Z,5.87
2019-02-07T05:24:29.255Z,5.93
2019-02-07T05:25:29.183Z,5.88
2019-02-07T05:26:29.150Z,5.87
2019-02-07T05:27:28.996Z,5.87
2019-02-07T05:28:28.907Z,5.88
2019-02-07T05:29:28.866Z,5.93
2019-02-07T05:30:28.752Z,5.95
2019-02-07T05:31:28.656Z,5.96
2019-02-07T05:32:28.583Z,6.01
2019-02-07T05:33:28.481Z,5.98
2019-02-07T05:34:28.405Z,5.93
2019-02-07T05:35:28.431Z,5.92
2019-02-07T05:36:28.224Z,5.95
2019-02-07T05:37:28.207Z,5.90
2019-02-07T05:38:28.047Z,5.98
2019-02-07T05:39:28.966Z,5.88
2019-02-07T05:40:27.889Z,5.83
2019-02-07T05:41:27.793Z,5.87
2019-02-07T05:42:27.705Z,5.85
2019-02-07T05:43:27.631Z,5.87
2019-02-07T05:44:27.535Z,5.90
2019-02-07T05:45:27.473Z,5.93
2019-02-07T05:46:27.357Z,5.80
2019-02-07T05:47:27.354Z,5.93
2019-02-07T05:48:27.186Z,5.90
2019-02-07T05:49:27.250Z,5.92
2019-02-07T05:50:27.026Z,5.95
2019-02-07T05:51:26.929Z,5.93
2019-02-07T05:52:26.839Z,5.90
2019-02-07T05:53:26.763Z,5.96
2019-02-07T05:54:26.666Z,5.96
2019-02-07T05:55:26.600Z,5.98
2019-02-07T05:56:26.579Z,5.96
2019-02-07T05:57:26.412Z,6.01
2019-02-07T05:58:26.321Z,6.03
2019-02-07T05:59:26.236Z,6.03
2019-02-07T06:00:26.169Z,5.99
2019-02-07T06:01:26.063Z,6.02
2019-02-07T06:02:25.979Z,6.05
2019-02-07T06:03:25.898Z,6.06
2019-02-07T06:04:25.805Z,6.14
2019-02-07T06:05:25.731Z,6.03
2019-02-07T06:06:25.637Z,6.06
2019-02-07T06:07:25.548Z,6.13
2019-02-07T06:08:25.455Z,6.19
2019-02-07T06:09:25.384Z,6.21
2019-02-07T06:10:25.299Z,6.20
2019-02-07T06:11:25.202Z,6.28
2019-02-07T06:12:25.112Z,6.25
2019-02-07T06:13:25.039Z,6.21
2019-02-07T06:14:24.942Z,6.24
2019-02-07T06:15:24.874Z,6.25
2019-02-07T06:16:24.770Z,6.21
2019-02-07T06:17:24.697Z,6.25
2019-02-07T06:18:24.597Z,6.30
2019-02-07T06:19:24.515Z,6.33
2019-02-07T06:20:24.437Z,6.32
2019-02-07T06:21:24.343Z,6.33
2019-02-07T06:22:24.252Z,6.36
2019-02-07T06:23:24.170Z,6.40
2019-02-07T06:24:24.105Z,6.39
2019-02-07T06:25:24.012Z,6.36
2019-02-07T06:26:23.907Z,6.35
2019-02-07T06:27:23.825Z,6.45
2019-02-07T06:28:23.736Z,6.46
2019-02-07T06:29:23.654Z,6.51
2019-02-07T06:30:23.576Z,6.48
2019-02-07T06:31:23.476Z,6.45
2019-02-07T06:32:23.398Z,6.43
2019-02-07T06:33:23.302Z,6.45
2019-02-07T06:34:28.985Z,6.45
2019-02-07T06:35:23.285Z,6.57
2019-02-07T06:36:23.047Z,6.43
2019-02-07T06:37:22.960Z,6.46
2019-02-07T06:38:22.902Z,6.50
2019-02-07T06:39:22.787Z,6.48
2019-02-07T06:40:22.700Z,6.50
2019-02-07T06:41:22.640Z,6.55
2019-02-07T06:42:22.530Z,6.57
2019-02-07T06:43:22.449Z,6.65
2019-02-07T06:44:22.358Z,6.69
2019-02-07T06:45:22.279Z,6.54
2019-02-07T06:46:22.198Z,6.65
2019-02-07T06:47:22.107Z,6.60
2019-02-07T06:48:22.012Z,6.65
2019-02-07T06:49:21.935Z,6.63
2019-02-07T06:50:21.841Z,6.69
2019-02-07T06:51:21.771Z,6.72
2019-02-07T06:52:21.674Z,6.75
2019-02-07T06:53:21.580Z,6.75
2019-02-07T06:54:21.497Z,6.71
2019-02-07T06:55:21.418Z,6.73
2019-02-07T06:56:21.340Z,6.75
2019-02-07T06:57:21.241Z,6.72
2019-02-07T06:58:21.160Z,6.71
2019-02-07T06:59:21.113Z,6.68
2019-02-07T07:00:20.979Z,6.68
2019-02-07T07:01:20.970Z,6.65
2019-02-07T07:02:20.822Z,6.71
2019-02-07T07:03:20.726Z,6.75
2019-02-07T07:04:20.641Z,6.73
2019-02-07T07:05:20.549Z,6.68
2019-02-07T07:06:20.476Z,6.65
2019-02-07T07:07:20.384Z,6.73
2019-02-07T07:08:20.294Z,6.71
2019-02-07T07:09:20.227Z,6.76
2019-02-07T07:10:20.122Z,6.71
2019-02-07T07:11:20.056Z,6.71
2019-02-07T07:12:19.951Z,6.78
2019-02-07T07:13:19.868Z,6.73
2019-02-07T07:14:19.778Z,6.65
2019-02-07T07:15:19.694Z,6.58
2019-02-07T07:16:19.618Z,6.54
2019-02-07T07:17:25.524Z,6.69
2019-02-07T07:18:19.432Z,6.60
2019-02-07T07:19:19.352Z,6.54
2019-02-07T07:20:19.261Z,6.57
2019-02-07T07:21:19.188Z,6.51
2019-02-07T07:22:19.095Z,6.55
2019-02-07T07:23:19.002Z,6.55
2019-02-07T07:24:18.919Z,6.51
2019-02-07T07:25:18.836Z,6.51
2019-02-07T07:26:18.758Z,6.45
2019-02-07T07:27:18.668Z,6.48
2019-02-07T07:28:18.569Z,6.54
2019-02-07T07:29:18.490Z,6.54
2019-02-07T07:30:18.400Z,6.50
2019-02-07T07:31:18.432Z,6.51
2019-02-07T07:32:18.227Z,6.53
2019-02-07T07:33:18.153Z,6.53
2019-02-07T07:34:18.055Z,6.53
2019-02-07T07:35:17.977Z,6.57
2019-02-07T07:36:17.905Z,6.53
2019-02-07T07:37:17.801Z,6.55
2019-02-07T07:38:17.710Z,6.50
2019-02-07T07:39:17.632Z,6.68
2019-02-07T07:40:17.537Z,6.68
2019-02-07T07:41:17.473Z,6.54
2019-02-07T07:42:17.372Z,6.57
2019-02-07T07:43:17.285Z,6.64
2019-02-07T07:44:17.192Z,6.72
2019-02-07T07:45:17.114Z,6.69
2019-02-07T07:46:17.047Z,6.69
2019-02-07T07:47:16.934Z,6.75
2019-02-07T07:48:16.854Z,6.76
2019-02-07T07:49:16.765Z,6.82
2019-02-07T07:50:16.677Z,6.81
2019-02-07T07:51:16.609Z,6.83
2019-02-07T07:52:16.504Z,6.87
2019-02-07T07:53:16.420Z,6.94
2019-02-07T07:54:16.338Z,6.94
2019-02-07T07:55:16.252Z,6.94
2019-02-07T07:56:16.175Z,7.00
2019-02-07T07:57:16.080Z,6.94
2019-02-07T07:58:15.991Z,6.91
2019-02-07T07:59:15.904Z,6.97
2019-02-07T08:00:15.825Z,7.07
2019-02-07T08:01:15.749Z,7.00
2019-02-07T08:02:15.652Z,7.08
2019-02-07T08:03:15.561Z,7.12
2019-02-07T08:04:15.481Z,7.12
2019-02-07T08:05:15.389Z,7.04
2019-02-07T08:06:15.333Z,7.15
2019-02-07T08:07:15.222Z,7.15
2019-02-07T08:08:15.130Z,7.15
2019-02-07T08:09:15.046Z,7.15
2019-02-07T08:10:14.986Z,7.05
2019-02-07T08:11:14.875Z,7.11
2019-02-07T08:12:14.804Z,7.05
2019-02-07T08:13:14.708Z,7.15
2019-02-07T08:14:14.637Z,7.09
2019-02-07T08:15:14.540Z,7.09
2019-02-07T08:16:14.449Z,7.08
2019-02-07T08:17:14.375Z,7.14
2019-02-07T08:18:14.285Z,7.11
2019-02-07T08:19:14.195Z,7.18
2019-02-07T08:20:14.105Z,7.18
2019-02-07T08:21:14.027Z,7.15
2019-02-07T08:22:13.951Z,7.16
2019-02-07T08:23:13.854Z,7.14
2019-02-07T08:24:13.762Z,7.14
2019-02-07T08:25:13.684Z,7.14
2019-02-07T08:26:13.591Z,7.18
2019-02-07T08:27:13.521Z,7.12
2019-02-07T08:28:13.426Z,7.14
2019-02-07T08:29:13.342Z,7.18
2019-02-07T08:30:13.250Z,7.08
2019-02-07T08:31:13.175Z,7.15
2019-02-07T08:32:13.091Z,7.09
2019-02-07T08:33:12.997Z,7.12
2019-02-07T08:34:12.907Z,7.04
2019-02-07T08:35:12.830Z,7.07
2019-02-07T08:36:12.735Z,7.11
2019-02-07T08:37:12.670Z,7.09
2019-02-07T08:38:12.578Z,7.05
2019-02-07T08:39:12.483Z,7.08
2019-02-07T08:40:12.396Z,7.00
2019-02-07T08:41:12.312Z,7.11
2019-02-07T08:42:12.236Z,7.00
2019-02-07T08:43:12.142Z,7.04
2019-02-07T08:44:14.163Z,7.07
2019-02-07T08:45:11.974Z,7.11
2019-02-07T08:46:11.880Z,7.16
2019-02-07T08:47:11.804Z,7.18
2019-02-07T08:48:11.714Z,7.27
2019-02-07T08:49:11.623Z,7.23
2019-02-07T08:50:11.538Z,7.36
2019-02-07T08:51:11.459Z,7.37
2019-02-07T08:52:11.438Z,7.32
2019-02-07T08:53:11.306Z,7.37
2019-02-07T08:54:11.208Z,7.37
2019-02-07T08:55:11.124Z,7.36
2019-02-07T08:56:11.028Z,7.34
2019-02-07T08:57:10.963Z,7.47
2019-02-07T08:58:10.854Z,7.50
2019-02-07T08:59:10.775Z,7.55
2019-02-07T09:00:10.697Z,7.62
2019-02-07T09:01:11.527Z,7.77
2019-02-07T09:02:10.541Z,7.73
2019-02-07T09:03:10.436Z,7.95
2019-02-07T09:04:10.346Z,8.00
2019-02-07T09:05:10.268Z,8.21
2019-02-07T09:06:10.176Z,8.31
2019-02-07T09:07:10.114Z,8.50
2019-02-07T09:08:10.006Z,8.61
2019-02-07T09:09:09.926Z,8.68
2019-02-07T09:10:09.839Z,8.79
2019-02-07T09:11:09.760Z,8.80
2019-02-07T09:12:09.679Z,8.93
2019-02-07T09:13:09.584Z,9.06
2019-02-07T09:14:09.506Z,9.19
2019-02-07T09:15:09.413Z,9.13
2019-02-07T09:16:09.329Z,9.12
2019-02-07T09:17:09.265Z,9.26
2019-02-07T09:18:12.768Z,9.30
2019-02-07T09:19:09.082Z,9.31
2019-02-07T09:20:08.990Z,9.35
2019-02-07T09:21:08.916Z,9.41
2019-02-07T09:22:08.840Z,9.44
2019-02-07T09:23:08.746Z,9.49
2019-02-07T09:24:08.662Z,9.59
2019-02-07T09:25:08.576Z,9.63
2019-02-07T09:26:08.489Z,9.70
2019-02-07T09:27:08.424Z,9.63
2019-02-07T09:28:08.319Z,9.80
2019-02-07T09:29:08.235Z,9.85
2019-02-07T09:30:08.157Z,9.88
2019-02-07T09:31:08.068Z,9.85
2019-02-07T09:32:08.015Z,9.88
2019-02-07T09:33:07.912Z,9.89
2019-02-07T09:34:07.816Z,9.88
2019-02-07T09:35:07.732Z,9.93
2019-02-07T09:36:10.015Z,9.93
2019-02-07T09:37:07.582Z,9.88
2019-02-07T09:38:07.494Z,9.83
2019-02-07T09:39:07.405Z,9.91
2019-02-07T09:40:07.312Z,9.83
2019-02-07T09:41:07.230Z,9.92
2019-02-07T09:42:07.154Z,9.83
2019-02-07T09:43:07.074Z,9.81
2019-02-07T09:44:06.983Z,9.83
2019-02-07T09:45:06.895Z,9.75
2019-02-07T09:46:06.817Z,9.70
2019-02-07T09:47:06.725Z,9.77
2019-02-07T09:48:06.661Z,9.73
2019-02-07T09:49:08.982Z,9.70
2019-02-07T09:50:06.480Z,9.70
2019-02-07T09:51:06.402Z,9.73
2019-02-07T09:52:06.317Z,9.80
2019-02-07T09:53:06.237Z,9.83
2019-02-07T09:54:06.140Z,10.18
2019-02-07T09:55:06.063Z,10.47
2019-02-07T09:56:05.973Z,10.76
2019-02-07T09:57:05.890Z,10.57
2019-02-07T09:58:05.826Z,10.81
2019-02-07T09:59:05.723Z,10.87
2019-02-07T10:00:05.644Z,10.86
2019-02-07T10:01:05.559Z,10.91
2019-02-07T10:02:05.479Z,10.93
2019-02-07T10:03:05.403Z,10.95
2019-02-07T10:04:05.308Z,10.80
2019-02-07T10:05:05.229Z,10.51
2019-02-07T10:06:05.170Z,10.49
2019-02-07T10:07:05.059Z,10.35
2019-02-07T10:08:04.996Z,10.25
2019-02-07T10:09:04.895Z,10.34
2019-02-07T10:10:04.810Z,10.26
2019-02-07T10:11:04.736Z,10.24
2019-02-07T10:12:04.642Z,10.34
2019-02-07T10:13:04.573Z,10.35
2019-02-07T10:14:04.490Z,10.36
2019-02-07T10:15:04.394Z,10.29
2019-02-07T10:16:04.315Z,10.39
2019-02-07T10:17:04.250Z,10.35
2019-02-07T10:18:04.160Z,10.36
2019-02-07T10:19:04.458Z,10.42
2019-02-07T10:20:03.986Z,10.38
2019-02-07T10:21:03.902Z,10.38
2019-02-07T10:22:03.816Z,10.31
2019-02-07T10:23:03.751Z,10.35
2019-02-07T10:24:03.654Z,10.43
2019-02-07T10:25:03.570Z,10.46
2019-02-07T10:26:03.485Z,10.52
2019-02-07T10:27:05.467Z,10.49
2019-02-07T10:28:03.341Z,10.54
2019-02-07T10:29:03.236Z,10.51
2019-02-07T10:30:03.158Z,10.38
2019-02-07T10:31:03.069Z,10.42
2019-02-07T10:32:03.041Z,10.47
2019-02-07T10:33:02.918Z,10.54
2019-02-07T10:34:02.832Z,10.54
2019-02-07T10:35:02.741Z,10.62
2019-02-07T10:36:02.665Z,10.66
2019-02-07T10:37:02.578Z,10.75
2019-02-07T10:38:02.510Z,10.72
2019-02-07T10:39:02.412Z,10.81
2019-02-07T10:40:02.333Z,10.88
2019-02-07T10:41:02.243Z,11.16
2019-02-07T10:42:02.165Z,11.06
2019-02-07T10:43:02.095Z,11.12
2019-02-07T10:44:01.997Z,11.08
2019-02-07T10:45:01.948Z,10.94
2019-02-07T10:46:01.829Z,11.05
2019-02-07T10:47:01.748Z,11.06
2019-02-07T10:48:01.686Z,11.08
2019-02-07T10:49:01.585Z,11.20
2019-02-07T10:50:01.507Z,11.09
2019-02-07T10:51:01.418Z,10.94
2019-02-07T10:52:01.345Z,10.98
2019-02-07T10:53:01.267Z,11.01
2019-02-07T10:54:01.173Z,11.13
2019-02-07T10:55:01.096Z,11.11
2019-02-07T10:56:01.058Z,11.11
2019-02-07T10:57:00.925Z,11.09
2019-02-07T10:58:00.879Z,10.98
2019-02-07T10:59:00.760Z,10.80
2019-02-07T11:00:00.685Z,10.90
2019-02-07T11:01:00.599Z,10.90
2019-02-07T11:02:00.521Z,10.88
2019-02-07T11:03:00.431Z,10.86
2019-02-07T11:04:00.369Z,10.87
2019-02-07T11:05:00.318Z,10.78
2019-02-07T11:06:00.194Z,10.86
2019-02-07T11:07:00.154Z,10.91
2019-02-07T11:08:00.026Z,10.98
2019-02-07T11:08:59.953Z,11.09
2019-02-07T11:09:59.856Z,10.98
2019-02-07T11:11:02.654Z,11.08
2019-02-07T11:11:59.692Z,11.38
2019-02-07T11:12:59.620Z,11.64
2019-02-07T11:13:59.548Z,11.75
2019-02-07T11:14:59.445Z,11.81
2019-02-07T11:15:59.369Z,11.78
2019-02-07T11:16:59.280Z,12.01
2019-02-07T11:17:59.209Z,11.75
2019-02-07T11:18:59.130Z,11.62
2019-02-07T11:19:59.052Z,11.54
2019-02-07T11:20:58.956Z,11.54
2019-02-07T11:21:58.885Z,11.30
2019-02-07T11:22:58.789Z,11.30
2019-02-07T11:23:58.724Z,11.36
2019-02-07T11:24:58.632Z,11.24
2019-02-07T11:25:58.545Z,11.12
2019-02-07T11:26:58.462Z,11.20
2019-02-07T11:27:58.387Z,11.23
2019-02-07T11:28:58.315Z,11.13
2019-02-07T11:29:58.219Z,11.12
2019-02-07T11:30:58.141Z,11.17
2019-02-07T11:31:58.051Z,11.24
2019-02-07T11:32:57.972Z,11.26
2019-02-07T11:33:57.910Z,11.21
2019-02-07T11:34:57.811Z,11.21
2019-02-07T11:35:57.736Z,11.21
2019-02-07T11:36:57.644Z,11.23
2019-02-07T11:37:57.571Z,11.20
2019-02-07T11:38:57.494Z,11.20
2019-02-07T11:39:57.403Z,11.27
2019-02-07T11:40:57.316Z,11.20
2019-02-07T11:41:57.239Z,11.30
2019-02-07T11:42:57.151Z,11.39
2019-02-07T11:43:57.085Z,11.46
2019-02-07T11:44:56.990Z,11.44
2019-02-07T11:45:56.904Z,11.41
2019-02-07T11:47:05.181Z,11.54
2019-02-07T11:47:56.745Z,11.35
2019-02-07T11:49:06.327Z,11.42
2019-02-07T11:49:56.578Z,11.33
2019-02-07T11:50:56.500Z,11.24
2019-02-07T11:51:56.414Z,11.30
2019-02-07T11:52:56.348Z,11.31
2019-02-07T11:53:56.271Z,11.30
2019-02-07T11:54:56.184Z,11.33
2019-02-07T11:55:56.121Z,11.28
2019-02-07T11:56:56.006Z,11.39
2019-02-07T11:57:55.919Z,11.51
2019-02-07T11:58:55.856Z,11.69
2019-02-07T11:59:55.760Z,11.64
2019-02-07T12:00:55.685Z,11.75
2019-02-07T12:01:55.593Z,11.84
2019-02-07T12:02:55.513Z,11.77
2019-02-07T12:03:55.445Z,11.64
2019-02-07T12:04:55.350Z,11.57
2019-02-07T12:05:55.269Z,11.54
2019-02-07T12:06:55.180Z,11.54
2019-02-07T12:07:55.105Z,11.60
2019-02-07T12:08:55.031Z,11.64
2019-02-07T12:09:54.945Z,11.64
2019-02-07T12:10:54.852Z,11.64
2019-02-07T12:11:54.778Z,11.72
2019-02-07T12:12:54.716Z,11.70
2019-02-07T12:13:54.629Z,11.67
2019-02-07T12:14:54.527Z,11.77
2019-02-07T12:15:54.444Z,11.66
2019-02-07T12:16:54.366Z,11.67
2019-02-07T12:17:54.280Z,11.81
2019-02-07T12:18:54.208Z,11.78
2019-02-07T12:19:54.124Z,11.98
2019-02-07T12:20:54.033Z,12.15
2019-02-07T12:21:53.966Z,12.13
2019-02-07T12:22:53.875Z,12.07
2019-02-07T12:23:53.815Z,12.19
2019-02-07T12:24:53.709Z,12.04
2019-02-07T12:25:53.630Z,12.05
2019-02-07T12:26:53.543Z,12.16
2019-02-07T12:27:53.465Z,12.18
2019-02-07T12:28:53.380Z,12.31
2019-02-07T12:29:53.310Z,12.48
2019-02-07T12:30:53.215Z,12.31
2019-02-07T12:31:53.142Z,12.21
2019-02-07T12:32:53.052Z,12.01
2019-02-07T12:33:52.972Z,12.07
2019-02-07T12:34:52.907Z,11.84
2019-02-07T12:35:52.808Z,12.04
2019-02-07T12:36:52.733Z,11.87
2019-02-07T12:37:52.643Z,11.63
2019-02-07T12:38:52.566Z,11.57
2019-02-07T12:39:52.495Z,11.53
2019-02-07T12:40:52.397Z,11.59
2019-02-07T12:41:52.324Z,11.53
2019-02-07T12:42:52.236Z,11.57
2019-02-07T12:43:52.154Z,11.72
2019-02-07T12:44:52.094Z,11.70
2019-02-07T12:45:51.994Z,12.03
2019-02-07T12:46:51.911Z,11.96
2019-02-07T12:47:51.832Z,11.87
2019-02-07T12:48:51.747Z,11.94
2019-02-07T12:49:51.678Z,11.82
2019-02-07T12:50:51.588Z,12.05
2019-02-07T12:51:51.495Z,12.19
2019-02-07T12:52:51.417Z,12.05
2019-02-07T12:53:51.345Z,12.03
2019-02-07T12:54:51.264Z,11.96
2019-02-07T12:55:52.647Z,11.88
2019-02-07T12:56:51.100Z,11.82
2019-02-07T12:57:51.007Z,11.85
2019-02-07T12:58:50.926Z,11.81
2019-02-07T12:59:50.862Z,11.88
2019-02-07T13:00:50.763Z,12.05
2019-02-07T13:01:50.679Z,11.87
2019-02-07T13:02:50.606Z,12.00
2019-02-07T13:03:50.521Z,11.85
2019-02-07T13:04:50.446Z,11.81
2019-02-07T13:05:50.359Z,11.66
2019-02-07T13:06:50.268Z,11.75
2019-02-07T13:07:50.197Z,11.60
2019-02-07T13:08:50.120Z,11.64
2019-02-07T13:09:50.037Z,12.01
2019-02-07T13:10:49.940Z,12.16